Time;durP1;ratioP1;P1;durP2;ratioP2;P2;SDS_P1;SDS_P2;PMS_P1;PMS_P2;Temp;Humidity;BMP_temperature;BMP_pressure;BME280_temperature;BME280_humidity;BME280_pressure;Samples;Min_cycle;Max_cycle;Signal;HPM_P1;HPM_P2
2023/12/17 00:01:49;;;;;;;25.63;11.57;;;;;9.40;103181.00;;;;5043491;28;20299;-71
2023/12/17 00:04:36;;;;;;;24.67;12.40;;;;;9.40;103168.00;;;;5043225;28;20318;-71
2023/12/17 00:07:22;;;;;;;26.43;12.33;;;;;9.40;103164.00;;;;5037379;28;20299;-68
2023/12/17 00:10:10;;;;;;;25.03;11.53;;;;;9.40;103169.00;;;;5036217;28;20336;-70
2023/12/17 00:12:56;;;;;;;24.13;11.63;;;;;9.30;103158.00;;;;5044806;28;20696;-72
2023/12/17 00:15:43;;;;;;;29.07;12.20;;;;;9.40;103161.00;;;;5040931;28;20236;-71
2023/12/17 00:18:29;;;;;;;23.83;12.67;;;;;9.40;103141.00;;;;5041282;28;20830;-71
2023/12/17 00:21:15;;;;;;;25.63;11.87;;;;;9.40;103143.00;;;;5041914;28;20359;-68
2023/12/17 00:24:02;;;;;;;24.30;11.57;;;;;9.40;103135.00;;;;5034554;28;20310;-70
2023/12/17 00:26:50;;;;;;;24.13;10.57;;;;;9.40;103123.00;;;;5047949;28;20225;-71
2023/12/17 00:29:36;;;;;;;22.67;12.37;;;;;9.40;103134.00;;;;5043421;28;20260;-71
2023/12/17 00:32:23;;;;;;;26.23;12.73;;;;;9.40;103129.00;;;;5043860;28;20696;-70
2023/12/17 00:35:09;;;;;;;25.70;12.30;;;;;9.30;103139.00;;;;5039872;28;20338;-68
2023/12/17 00:37:55;;;;;;;25.47;12.77;;;;;9.40;103133.00;;;;5043741;28;20228;-67
2023/12/17 00:40:41;;;;;;;25.37;12.90;;;;;9.40;103144.00;;;;5041265;28;20240;-72
2023/12/17 00:43:29;;;;;;;24.47;12.30;;;;;9.40;103156.00;;;;5044301;28;20236;-72
2023/12/17 00:46:15;;;;;;;25.67;12.47;;;;;9.40;103145.00;;;;5034520;28;20231;-70
2023/12/17 00:49:02;;;;;;;25.90;12.57;;;;;9.40;103151.00;;;;5044234;28;20220;-68
2023/12/17 00:51:48;;;;;;;23.17;12.40;;;;;9.40;103142.00;;;;5043031;28;20240;-70
2023/12/17 00:54:35;;;;;;;26.17;12.23;;;;;9.30;103143.00;;;;5043224;28;20641;-69
2023/12/17 00:57:21;;;;;;;25.13;12.53;;;;;9.30;103156.00;;;;5041428;28;20252;-70
2023/12/17 01:00:10;;;;;;;23.97;12.60;;;;;9.40;103148.00;;;;5041669;28;20227;-70
2023/12/17 01:02:56;;;;;;;25.20;13.13;;;;;9.40;103162.00;;;;5044440;28;20236;-70
2023/12/17 01:05:42;;;;;;;29.33;13.43;;;;;9.40;103163.00;;;;5043359;28;20235;-72
2023/12/17 01:08:29;;;;;;;29.53;13.43;;;;;9.50;103172.00;;;;5043996;28;20702;-70
2023/12/17 01:11:15;;;;;;;24.90;12.53;;;;;9.50;103167.00;;;;5037459;28;20243;-71
2023/12/17 01:14:02;;;;;;;28.53;13.83;;;;;9.50;103166.00;;;;5043992;28;20614;-71
2023/12/17 01:16:50;;;;;;;28.80;13.87;;;;;9.50;103171.00;;;;5043417;28;20285;-70
2023/12/17 01:19:37;;;;;;;32.00;14.90;;;;;9.40;103163.00;;;;5043388;28;20280;-70
2023/12/17 01:22:24;;;;;;;28.13;13.33;;;;;9.40;103152.00;;;;5030228;28;20249;-69
2023/12/17 01:25:10;;;;;;;24.97;12.63;;;;;9.40;103163.00;;;;5037222;28;20225;-69
2023/12/17 01:27:56;;;;;;;27.73;14.57;;;;;9.40;103159.00;;;;5039866;28;20371;-70
2023/12/17 01:30:43;;;;;;;31.27;13.30;;;;;9.40;103162.00;;;;5041523;28;20704;-68
2023/12/17 01:33:30;;;;;;;28.10;14.10;;;;;9.40;103170.00;;;;5037367;28;20278;-68
2023/12/17 01:36:16;;;;;;;24.27;13.30;;;;;9.40;103178.00;;;;5037649;28;20379;-70
2023/12/17 01:39:03;;;;;;;26.20;12.60;;;;;9.40;103187.00;;;;5042412;28;20654;-67
2023/12/17 01:41:50;;;;;;;31.47;13.17;;;;;9.50;103182.00;;;;5043214;28;20346;-70
2023/12/17 01:44:36;;;;;;;32.17;13.83;;;;;9.50;103178.00;;;;5041777;28;20857;-72
2023/12/17 01:47:22;;;;;;;27.90;13.83;;;;;9.50;103179.00;;;;5042357;28;20224;-70
2023/12/17 01:50:10;;;;;;;24.90;12.53;;;;;9.50;103184.00;;;;5042726;28;20228;-71
2023/12/17 01:52:57;;;;;;;22.70;11.53;;;;;9.50;103181.00;;;;5043317;28;20260;-68
2023/12/17 01:55:45;;;;;;;29.03;11.67;;;;;9.50;103177.00;;;;5040607;28;20236;-72
2023/12/17 01:58:32;;;;;;;23.13;12.80;;;;;9.50;103184.00;;;;5043763;28;20720;-70
2023/12/17 02:01:19;;;;;;;28.30;12.80;;;;;9.50;103168.00;;;;5043021;28;20229;-69
2023/12/17 02:04:06;;;;;;;24.93;11.37;;;;;9.50;103159.00;;;;5044291;28;20587;-70
2023/12/17 02:06:56;;;;;;;25.53;11.80;;;;;9.50;103158.00;;;;5043136;28;20227;-70
2023/12/17 02:09:44;;;;;;;32.03;12.97;;;;;9.50;103168.00;;;;5043687;28;20265;-70
2023/12/17 02:12:30;;;;;;;26.37;11.93;;;;;9.50;103162.00;;;;5038181;28;20291;-71
2023/12/17 02:15:16;;;;;;;25.50;11.83;;;;;9.40;103156.00;;;;5036107;28;20387;-71
2023/12/17 02:18:02;;;;;;;22.57;12.00;;;;;9.40;103154.00;;;;5043771;28;20236;-69
2023/12/17 02:20:50;;;;;;;25.13;12.60;;;;;9.40;103160.00;;;;5046448;28;20299;-69
2023/12/17 02:23:38;;;;;;;25.93;12.33;;;;;9.50;103170.00;;;;5046147;28;20743;-72
2023/12/17 02:26:24;;;;;;;29.17;12.47;;;;;9.50;103163.00;;;;5044832;28;20237;-69
2023/12/17 02:29:11;;;;;;;20.70;10.87;;;;;9.50;103157.00;;;;5041632;28;20244;-68
2023/12/17 02:31:57;;;;;;;26.30;12.77;;;;;9.50;103160.00;;;;5041794;28;20237;-70
2023/12/17 02:34:44;;;;;;;22.87;11.73;;;;;9.50;103165.00;;;;5042061;28;20278;-70
2023/12/17 02:37:30;;;;;;;23.40;11.30;;;;;9.50;103156.00;;;;5040099;28;20236;-71
2023/12/17 02:40:18;;;;;;;21.63;11.40;;;;;9.50;103158.00;;;;5046128;28;20752;-71
2023/12/17 02:43:05;;;;;;;23.73;10.80;;;;;9.50;103148.00;;;;5046030;28;20225;-68
2023/12/17 02:45:51;;;;;;;25.53;11.20;;;;;9.40;103157.00;;;;5040448;28;20716;-72
2023/12/17 02:48:39;;;;;;;23.80;11.93;;;;;9.50;103144.00;;;;5046179;28;20271;-71
2023/12/17 02:51:26;;;;;;;24.43;11.17;;;;;9.50;103151.00;;;;5039886;28;20360;-70
2023/12/17 02:54:12;;;;;;;27.43;11.53;;;;;9.50;103161.00;;;;5046324;28;20253;-71
2023/12/17 02:57:00;;;;;;;25.80;11.50;;;;;9.50;103157.00;;;;5045896;28;20385;-67
2023/12/17 02:59:46;;;;;;;25.13;11.67;;;;;9.50;103148.00;;;;5046144;28;20232;-70
2023/12/17 03:02:33;;;;;;;24.23;11.00;;;;;9.50;103141.00;;;;5046309;28;20237;-70
2023/12/17 03:05:19;;;;;;;25.20;11.57;;;;;9.50;103144.00;;;;5043177;28;20608;-70
2023/12/17 03:08:06;;;;;;;26.37;11.53;;;;;9.50;103147.00;;;;5041464;28;20726;-71
2023/12/17 03:10:52;;;;;;;24.93;11.63;;;;;9.40;103147.00;;;;5036244;28;20886;-69
2023/12/17 03:13:40;;;;;;;30.43;11.93;;;;;9.40;103143.00;;;;5024291;28;20233;-71
2023/12/17 03:16:29;;;;;;;27.40;11.87;;;;;9.40;103146.00;;;;5042652;28;20814;-71
2023/12/17 03:19:16;;;;;;;24.23;11.50;;;;;9.40;103144.00;;;;5042813;28;20262;-70
2023/12/17 03:22:02;;;;;;;25.27;12.63;;;;;9.50;103141.00;;;;5042686;28;20785;-71
2023/12/17 03:24:48;;;;;;;23.97;11.03;;;;;9.50;103137.00;;;;5049230;28;20228;-71
2023/12/17 03:27:35;;;;;;;23.07;11.83;;;;;9.50;103132.00;;;;5037555;28;20256;-70
2023/12/17 03:30:23;;;;;;;24.57;12.57;;;;;9.50;103124.00;;;;5033760;28;20751;-70
2023/12/17 03:33:10;;;;;;;28.40;12.37;;;;;9.50;103119.00;;;;5052315;28;20362;-68
2023/12/17 03:35:57;;;;;;;27.47;11.90;;;;;9.50;103115.00;;;;5044419;28;20310;-70
2023/12/17 03:38:45;;;;;;;22.50;12.43;;;;;9.50;103107.00;;;;5041485;28;20233;-71
2023/12/17 03:41:32;;;;;;;24.40;11.47;;;;;9.40;103108.00;;;;5033025;28;20244;-69
2023/12/17 03:44:18;;;;;;;28.53;12.00;;;;;9.40;103097.00;;;;5038109;28;20728;-71
2023/12/17 03:47:06;;;;;;;23.60;11.90;;;;;9.40;103112.00;;;;5046475;28;20232;-70
2023/12/17 03:49:52;;;;;;;24.33;11.93;;;;;9.40;103101.00;;;;5044559;28;20375;-70
2023/12/17 03:52:38;;;;;;;26.53;12.20;;;;;9.40;103100.00;;;;5052282;28;20605;-71
2023/12/17 03:55:25;;;;;;;27.20;12.23;;;;;9.40;103105.00;;;;5038151;28;20277;-71
2023/12/17 03:58:11;;;;;;;26.27;12.17;;;;;9.40;103092.00;;;;5042236;28;20354;-70
2023/12/17 04:00:58;;;;;;;23.33;11.33;;;;;9.40;103105.00;;;;5041904;28;21048;-70
2023/12/17 04:03:46;;;;;;;21.50;10.70;;;;;9.40;103085.00;;;;5040727;28;20699;-72
2023/12/17 04:06:32;;;;;;;23.93;11.50;;;;;9.40;103095.00;;;;5040759;28;20241;-70
2023/12/17 04:09:19;;;;;;;32.43;12.97;;;;;9.40;103099.00;;;;5042990;28;20228;-71
2023/12/17 04:12:06;;;;;;;26.37;12.80;;;;;9.40;103088.00;;;;5042292;28;20882;-72
2023/12/17 04:14:52;;;;;;;28.90;12.27;;;;;9.40;103080.00;;;;5045308;28;20302;-70
2023/12/17 04:17:39;;;;;;;33.53;13.83;;;;;9.30;103079.00;;;;5045298;28;21026;-71
2023/12/17 04:20:27;;;;;;;25.53;12.90;;;;;9.30;103069.00;;;;5044563;28;20231;-68
2023/12/17 04:23:13;;;;;;;26.47;12.57;;;;;9.30;103078.00;;;;5044582;28;20248;-71
2023/12/17 04:26:00;;;;;;;27.37;13.67;;;;;9.40;103078.00;;;;5044648;28;20232;-70
2023/12/17 04:28:46;;;;;;;25.03;12.20;;;;;9.40;103073.00;;;;5040238;28;20673;-71
2023/12/17 04:31:32;;;;;;;27.67;12.23;;;;;9.30;103077.00;;;;5041282;28;20825;-71
2023/12/17 04:34:18;;;;;;;27.00;12.97;;;;;9.30;103075.00;;;;5043777;28;20276;-70
2023/12/17 04:37:06;;;;;;;28.90;13.50;;;;;9.30;103071.00;;;;5043563;28;20608;-71
2023/12/17 04:39:53;;;;;;;26.57;13.23;;;;;9.30;103071.00;;;;5044280;28;20233;-72
2023/12/17 04:42:39;;;;;;;25.87;12.27;;;;;9.40;103071.00;;;;5043720;28;20232;-70
2023/12/17 04:45:26;;;;;;;23.70;10.97;;;;;9.40;103071.00;;;;5036666;28;20304;-70
2023/12/17 04:48:12;;;;;;;25.87;12.90;;;;;9.30;103065.00;;;;5042665;28;20279;-70
2023/12/17 04:50:59;;;;;;;27.03;12.13;;;;;9.30;103060.00;;;;5038032;28;20319;-70
2023/12/17 04:53:46;;;;;;;25.83;13.43;;;;;9.30;103065.00;;;;5044199;28;20352;-70
2023/12/17 04:56:33;;;;;;;28.50;13.30;;;;;9.30;103061.00;;;;5046952;28;20247;-72
2023/12/17 04:59:19;;;;;;;24.60;12.50;;;;;9.30;103065.00;;;;5042442;28;20233;-71
2023/12/17 05:02:06;;;;;;;30.03;13.03;;;;;9.30;103070.00;;;;5042951;28;20285;-70
2023/12/17 05:04:52;;;;;;;30.33;13.67;;;;;9.30;103069.00;;;;5040085;28;20351;-69
2023/12/17 05:07:39;;;;;;;27.23;12.43;;;;;9.30;103061.00;;;;5044158;28;20268;-71
2023/12/17 05:10:27;;;;;;;26.00;11.87;;;;;9.30;103053.00;;;;5041358;28;20236;-70
2023/12/17 05:13:13;;;;;;;24.37;12.47;;;;;9.30;103047.00;;;;5042420;28;20253;-71
2023/12/17 05:16:00;;;;;;;22.77;11.67;;;;;9.30;103048.00;;;;5044916;28;20243;-70
2023/12/17 05:18:46;;;;;;;29.67;13.60;;;;;9.30;103025.00;;;;5046823;28;20280;-71
2023/12/17 05:21:32;;;;;;;26.13;12.10;;;;;9.20;103041.00;;;;5043974;28;20258;-71
2023/12/17 05:24:19;;;;;;;22.17;11.30;;;;;9.30;103038.00;;;;5045392;28;20308;-71
2023/12/17 05:27:07;;;;;;;30.10;13.00;;;;;9.20;103031.00;;;;5047797;28;20266;-71
2023/12/17 05:29:53;;;;;;;26.00;12.93;;;;;9.30;103035.00;;;;5045855;28;20224;-71
2023/12/17 05:32:39;;;;;;;26.57;12.53;;;;;9.20;103033.00;;;;5041785;28;20232;-70
2023/12/17 05:35:26;;;;;;;25.47;12.43;;;;;9.30;103022.00;;;;5047798;28;20236;-71
2023/12/17 05:38:12;;;;;;;33.30;13.33;;;;;9.30;103023.00;;;;5043842;28;20300;-70
2023/12/17 05:40:59;;;;;;;27.13;11.67;;;;;9.30;103026.00;;;;5044111;28;20287;-71
2023/12/17 05:43:46;;;;;;;28.00;12.47;;;;;9.30;103032.00;;;;5041365;28;20220;-71
2023/12/17 05:46:32;;;;;;;27.40;13.03;;;;;9.30;103043.00;;;;5040671;28;20236;-70
2023/12/17 05:49:19;;;;;;;26.70;11.73;;;;;9.30;103033.00;;;;5042989;28;20386;-70
2023/12/17 05:52:06;;;;;;;31.10;13.07;;;;;9.40;103041.00;;;;5045822;28;20231;-67
2023/12/17 05:54:52;;;;;;;30.00;12.57;;;;;9.40;103037.00;;;;5042892;28;20233;-70
2023/12/17 05:57:39;;;;;;;30.83;13.17;;;;;9.40;103038.00;;;;5043610;28;20701;-69
2023/12/17 06:00:27;;;;;;;26.47;12.20;;;;;9.40;103041.00;;;;5046693;28;20713;-69
2023/12/17 06:03:13;;;;;;;29.23;12.70;;;;;9.40;103034.00;;;;5047043;28;20236;-68
2023/12/17 06:05:59;;;;;;;29.10;12.63;;;;;9.50;103032.00;;;;5042759;28;20240;-66
2023/12/17 06:08:46;;;;;;;39.13;18.83;;;;;9.40;103037.00;;;;5047868;28;21444;-71
2023/12/17 06:11:32;;;;;;;28.33;13.97;;;;;9.40;103050.00;;;;5039080;28;20255;-71
2023/12/17 06:14:18;;;;;;;27.90;12.53;;;;;9.30;103053.00;;;;5038326;28;20610;-72
2023/12/17 06:17:06;;;;;;;30.60;13.50;;;;;9.30;103051.00;;;;5049430;28;20234;-71
2023/12/17 06:19:53;;;;;;;28.43;12.70;;;;;9.30;103054.00;;;;5044584;28;20228;-70
2023/12/17 06:22:39;;;;;;;24.57;12.13;;;;;9.30;103057.00;;;;5032868;28;20254;-71
2023/12/17 06:25:25;;;;;;;30.13;12.67;;;;;9.30;103053.00;;;;5043971;28;20309;-71
2023/12/17 06:28:12;;;;;;;23.07;12.17;;;;;9.30;103053.00;;;;5042857;28;20737;-72
2023/12/17 06:30:59;;;;;;;26.63;11.93;;;;;9.30;103051.00;;;;5042963;28;20239;-71
2023/12/17 06:33:47;;;;;;;27.33;12.83;;;;;9.30;103057.00;;;;5047825;28;20228;-71
2023/12/17 06:36:33;;;;;;;25.10;11.90;;;;;9.30;103059.00;;;;5046208;28;20305;-72
2023/12/17 06:39:20;;;;;;;19.70;10.20;;;;;9.20;103077.00;;;;5046907;28;20232;-70
2023/12/17 06:42:06;;;;;;;27.83;12.47;;;;;9.20;103072.00;;;;5040911;28;20310;-70
2023/12/17 06:44:52;;;;;;;19.80;10.33;;;;;9.20;103084.00;;;;5039773;28;20284;-70
2023/12/17 06:47:39;;;;;;;28.30;12.80;;;;;9.30;103076.00;;;;5040438;28;20236;-71
2023/12/17 06:50:28;;;;;;;27.10;11.60;;;;;9.30;103091.00;;;;5046039;28;20277;-71
2023/12/17 06:53:16;;;;;;;25.97;11.43;;;;;9.10;103089.00;;;;5043453;28;20252;-72
2023/12/17 06:56:02;;;;;;;24.97;11.60;;;;;9.10;103083.00;;;;5045858;28;20267;-72
2023/12/17 06:58:49;;;;;;;23.87;10.70;;;;;9.20;103079.00;;;;5039052;28;20232;-72
2023/12/17 07:01:35;;;;;;;24.03;11.50;;;;;9.10;103087.00;;;;5040900;28;20237;-72
2023/12/17 07:04:22;;;;;;;24.37;10.77;;;;;9.20;103077.00;;;;5044755;28;20229;-72
2023/12/17 07:07:10;;;;;;;22.23;10.77;;;;;9.10;103096.00;;;;5045965;28;20224;-73
2023/12/17 07:09:56;;;;;;;22.73;10.03;;;;;9.10;103089.00;;;;5041698;28;20229;-72
2023/12/17 07:12:42;;;;;;;26.20;12.10;;;;;9.10;103091.00;;;;5035941;28;20235;-70
2023/12/17 07:15:29;;;;;;;21.77;11.03;;;;;9.10;103098.00;;;;5040918;28;20236;-71
2023/12/17 07:18:15;;;;;;;26.00;11.57;;;;;9.10;103097.00;;;;5044314;28;20240;-70
2023/12/17 07:21:01;;;;;;;21.53;10.97;;;;;9.10;103085.00;;;;5046147;28;20240;-70
2023/12/17 07:23:51;;;;;;;24.77;10.90;;;;;9.00;103094.00;;;;5037193;28;20255;-72
2023/12/17 07:26:37;;;;;;;21.40;10.70;;;;;9.10;103096.00;;;;5045071;28;20217;-72
2023/12/17 07:29:24;;;;;;;21.83;10.97;;;;;9.00;103095.00;;;;5035802;28;20235;-73
2023/12/17 07:32:12;;;;;;;27.90;11.57;;;;;9.00;103110.00;;;;5042709;28;20236;-72
2023/12/17 07:34:59;;;;;;;26.70;10.77;;;;;8.90;103105.00;;;;5043108;28;20688;-73
2023/12/17 07:37:45;;;;;;;26.83;12.60;;;;;8.90;103109.00;;;;5040093;28;20678;-71
2023/12/17 07:40:33;;;;;;;23.93;10.70;;;;;8.90;103109.00;;;;5044679;28;20248;-71
2023/12/17 07:43:22;;;;;;;20.10;10.07;;;;;8.90;103104.00;;;;5038650;28;20229;-74
2023/12/17 07:46:08;;;;;;;22.37;11.57;;;;;8.90;103101.00;;;;5041428;28;20231;-73
2023/12/17 07:48:54;;;;;;;24.57;10.87;;;;;8.90;103101.00;;;;5039872;28;20245;-74
2023/12/17 07:51:42;;;;;;;26.70;12.07;;;;;8.90;103098.00;;;;5042693;28;20221;-72
2023/12/17 07:54:29;;;;;;;21.97;10.57;;;;;8.80;103111.00;;;;5043540;28;20295;-72
2023/12/17 07:57:16;;;;;;;24.70;10.13;;;;;8.80;103107.00;;;;5042879;28;20239;-72
2023/12/17 08:00:04;;;;;;;19.40;10.63;;;;;8.80;103108.00;;;;5040620;28;20755;-73
2023/12/17 08:02:50;;;;;;;20.70;9.03;;;;;8.90;103101.00;;;;5038975;28;20784;-71
2023/12/17 08:05:36;;;;;;;19.17;10.27;;;;;8.90;103092.00;;;;5044180;28;20359;-73
2023/12/17 08:08:22;;;;;;;23.83;10.77;;;;;8.80;103095.00;;;;5042481;28;20618;-72
2023/12/17 08:11:11;;;;;;;21.77;9.83;;;;;8.80;103100.00;;;;5044186;28;20232;-72
2023/12/17 08:14:00;;;;;;;20.93;10.13;;;;;8.80;103086.00;;;;5044612;28;20251;-73
2023/12/17 08:16:46;;;;;;;21.30;10.93;;;;;8.90;103080.00;;;;5040475;28;20604;-73
2023/12/17 08:19:32;;;;;;;25.83;10.30;;;;;8.90;103094.00;;;;5045143;28;20311;-72
2023/12/17 08:22:18;;;;;;;22.77;10.57;;;;;8.90;103089.00;;;;5042563;28;20362;-74
2023/12/17 08:25:06;;;;;;;24.80;9.87;;;;;8.90;103098.00;;;;5041973;28;20236;-72
2023/12/17 08:27:52;;;;;;;22.03;10.20;;;;;8.90;103091.00;;;;5039330;28;20233;-72
2023/12/17 08:30:40;;;;;;;21.53;10.13;;;;;8.80;103095.00;;;;5044772;28;20706;-73
2023/12/17 08:33:27;;;;;;;26.27;11.20;;;;;8.80;103084.00;;;;5044537;28;20248;-73
2023/12/17 08:36:14;;;;;;;20.17;10.47;;;;;8.90;103088.00;;;;5043989;28;25311;-74
2023/12/17 08:39:00;;;;;;;22.20;10.00;;;;;8.80;103089.00;;;;5037448;28;20786;-71
2023/12/17 08:41:46;;;;;;;20.77;10.60;;;;;8.90;103086.00;;;;5044421;28;20232;-74
2023/12/17 08:44:34;;;;;;;20.67;9.40;;;;;8.90;103081.00;;;;5043825;28;21059;-73
2023/12/17 08:47:22;;;;;;;21.00;9.30;;;;;8.80;103085.00;;;;5043119;28;20227;-73
2023/12/17 08:50:10;;;;;;;21.20;9.73;;;;;8.80;103094.00;;;;5042811;28;20237;-73
2023/12/17 08:52:56;;;;;;;20.87;11.20;;;;;8.80;103081.00;;;;5044113;28;20303;-73
2023/12/17 08:55:42;;;;;;;17.77;9.80;;;;;8.80;103091.00;;;;5044425;28;20241;-73
2023/12/17 08:58:29;;;;;;;18.17;9.23;;;;;8.90;103085.00;;;;5040514;28;20240;-74
2023/12/17 09:01:18;;;;;;;17.73;9.07;;;;;8.90;103085.00;;;;5043574;28;20224;-71
2023/12/17 09:04:05;;;;;;;19.80;8.67;;;;;8.80;103087.00;;;;5041162;28;20232;-73
2023/12/17 09:06:52;;;;;;;18.40;9.00;;;;;8.80;103074.00;;;;5037811;28;20283;-73
2023/12/17 09:09:38;;;;;;;16.00;7.90;;;;;8.80;103085.00;;;;5044242;28;20285;-73
2023/12/17 09:12:24;;;;;;;17.53;8.67;;;;;8.90;103077.00;;;;5040586;28;20235;-74
2023/12/17 09:15:11;;;;;;;15.37;8.20;;;;;8.90;103076.00;;;;5039869;28;20239;-73
2023/12/17 09:17:57;;;;;;;17.40;7.77;;;;;8.90;103084.00;;;;5034040;28;20235;-73
2023/12/17 09:20:45;;;;;;;16.53;7.93;;;;;8.90;103074.00;;;;5042988;28;20241;-73
2023/12/17 09:23:31;;;;;;;16.73;6.87;;;;;8.80;103074.00;;;;5039405;28;20369;-73
2023/12/17 09:26:18;;;;;;;13.00;6.90;;;;;8.70;103074.00;;;;5039121;28;20773;-73
2023/12/17 09:29:05;;;;;;;12.73;6.30;;;;;8.80;103074.00;;;;5051041;28;20630;-74
2023/12/17 09:31:51;;;;;;;11.57;6.33;;;;;8.80;103069.00;;;;5057352;28;20296;-72
2023/12/17 09:34:38;;;;;;;11.37;7.13;;;;;8.80;103078.00;;;;5050208;28;20732;-73
2023/12/17 09:37:26;;;;;;;11.73;6.80;;;;;8.70;103067.00;;;;5044337;28;20258;-72
2023/12/17 09:40:12;;;;;;;14.10;6.90;;;;;8.70;103071.00;;;;5047500;28;20227;-72
2023/12/17 09:43:00;;;;;;;13.10;6.77;;;;;8.70;103072.00;;;;5047882;28;20235;-75
2023/12/17 09:45:47;;;;;;;14.20;7.43;;;;;8.70;103070.00;;;;5048072;28;20902;-73
2023/12/17 09:48:33;;;;;;;15.07;7.70;;;;;8.80;103069.00;;;;5044457;28;20240;-73
2023/12/17 09:51:22;;;;;;;14.30;7.07;;;;;8.70;103077.00;;;;5047543;28;20331;-73
2023/12/17 09:54:10;;;;;;;14.47;7.50;;;;;8.80;103071.00;;;;5042540;28;20227;-73
2023/12/17 09:56:57;;;;;;;17.67;7.50;;;;;8.70;103067.00;;;;5046255;28;20223;-73
2023/12/17 09:59:45;;;;;;;12.47;7.17;;;;;8.70;103069.00;;;;5049972;28;20306;-75
2023/12/17 10:02:31;;;;;;;16.97;8.53;;;;;8.70;103061.00;;;;5036950;28;20811;-73
2023/12/17 10:05:25;;;;;;;16.27;7.27;;;;;8.80;103069.00;;;;5042307;28;20240;-75
2023/12/17 10:08:12;;;;;;;18.67;8.10;;;;;8.70;103072.00;;;;5044169;28;20740;-75
2023/12/17 10:11:00;;;;;;;16.97;7.97;;;;;8.60;103068.00;;;;5047240;28;20231;-75
2023/12/17 10:13:46;;;;;;;19.20;9.47;;;;;8.50;103063.00;;;;5045911;28;20235;-71
2023/12/17 10:16:33;;;;;;;15.80;8.10;;;;;8.50;103068.00;;;;5046988;28;20275;-74
2023/12/17 10:19:20;;;;;;;15.70;8.10;;;;;8.50;103058.00;;;;5047966;28;20232;-73
2023/12/17 10:22:08;;;;;;;21.37;10.27;;;;;8.50;103061.00;;;;5046331;28;20606;-72
2023/12/17 10:24:55;;;;;;;19.47;8.43;;;;;8.40;103061.00;;;;5046424;28;20224;-74
2023/12/17 10:27:43;;;;;;;15.87;7.33;;;;;8.50;103045.00;;;;5047793;28;20238;-72
2023/12/17 10:30:33;;;;;;;16.00;8.37;;;;;8.50;103060.00;;;;5043895;28;20231;-73
2023/12/17 10:33:25;;;;;;;14.23;7.80;;;;;8.60;103057.00;;;;5047073;28;20325;-73
2023/12/17 10:36:11;;;;;;;18.33;8.80;;;;;8.50;103051.00;;;;5043316;28;20368;-73
2023/12/17 10:38:59;;;;;;;14.57;8.33;;;;;8.60;103063.00;;;;5051420;28;20231;-73
2023/12/17 10:41:48;;;;;;;18.77;7.73;;;;;8.50;103043.00;;;;5040886;28;20270;-74
2023/12/17 10:44:38;;;;;;;13.43;6.70;;;;;8.40;103043.00;;;;5043135;28;20598;-73
2023/12/17 10:47:26;;;;;;;13.77;7.83;;;;;8.50;103041.00;;;;5047406;28;20247;-74
2023/12/17 10:50:13;;;;;;;13.87;8.40;;;;;8.50;103041.00;;;;5047288;28;20243;-74
2023/12/17 10:52:59;;;;;;;16.03;7.57;;;;;8.40;103042.00;;;;5046685;28;20234;-74
2023/12/17 10:55:46;;;;;;;16.93;8.00;;;;;8.50;103047.00;;;;5046922;28;20301;-73
2023/12/17 10:58:33;;;;;;;17.73;8.60;;;;;8.50;103047.00;;;;5047545;28;20278;-74
2023/12/17 11:01:22;;;;;;;16.00;7.87;;;;;8.50;103040.00;;;;5042731;28;20291;-73
2023/12/17 11:04:09;;;;;;;16.43;7.50;;;;;8.50;103041.00;;;;5044373;28;20671;-73
2023/12/17 11:06:56;;;;;;;16.87;7.30;;;;;8.50;103036.00;;;;5043239;28;20235;-71
2023/12/17 11:09:42;;;;;;;15.83;8.50;;;;;8.50;103033.00;;;;5047331;28;20237;-73
2023/12/17 11:12:29;;;;;;;18.17;8.87;;;;;8.50;103024.00;;;;5037503;28;20230;-73
2023/12/17 11:15:20;;;;;;;17.43;8.83;;;;;8.60;103020.00;;;;5042191;28;20245;-74
2023/12/17 11:18:09;;;;;;;18.73;9.87;;;;;8.60;103011.00;;;;5041355;28;20300;-73
2023/12/17 11:20:59;;;;;;;18.23;9.27;;;;;8.60;103013.00;;;;5040335;28;20223;-73
2023/12/17 11:23:47;;;;;;;19.37;9.27;;;;;8.50;103014.00;;;;5045899;28;20225;-74
2023/12/17 11:26:40;;;;;;;21.60;10.50;;;;;8.50;103008.00;;;;5045487;28;20318;-73
2023/12/17 11:29:34;;;;;;;19.03;8.90;;;;;8.60;103004.00;;;;5041520;28;20246;-71
2023/12/17 11:32:26;;;;;;;19.33;9.03;;;;;8.60;103004.00;;;;5042665;28;20232;-73
2023/12/17 11:35:14;;;;;;;23.57;10.63;;;;;8.50;103011.00;;;;5040287;28;20761;-74
2023/12/17 11:38:02;;;;;;;21.70;11.83;;;;;8.50;103002.00;;;;5045354;28;20289;-75
2023/12/17 11:40:49;;;;;;;21.77;11.27;;;;;8.50;102997.00;;;;5046845;28;20298;-74
2023/12/17 11:43:35;;;;;;;23.43;11.10;;;;;8.50;103005.00;;;;5045291;28;20227;-72
2023/12/17 11:46:22;;;;;;;25.37;10.90;;;;;8.50;102993.00;;;;5043690;28;20231;-74
2023/12/17 11:49:09;;;;;;;24.23;12.20;;;;;8.70;102993.00;;;;5039985;28;20229;-73
2023/12/17 11:51:57;;;;;;;20.97;10.93;;;;;8.60;102998.00;;;;5038000;28;20242;-73
2023/12/17 11:54:43;;;;;;;21.13;10.60;;;;;8.50;102988.00;;;;5045523;28;20995;-74
2023/12/17 11:57:30;;;;;;;26.70;12.20;;;;;8.40;102976.00;;;;5041925;28;20776;-73
2023/12/17 12:00:16;;;;;;;21.70;11.70;;;;;8.30;102987.00;;;;5045358;28;20238;-74
2023/12/17 12:03:03;;;;;;;22.13;11.37;;;;;8.30;102974.00;;;;5044932;28;20616;-73
2023/12/17 12:05:49;;;;;;;24.57;11.27;;;;;8.30;102988.00;;;;5045627;28;20288;-74
2023/12/17 12:08:40;;;;;;;22.43;10.67;;;;;8.30;102992.00;;;;5040882;28;20249;-73
2023/12/17 12:11:31;;;;;;;25.90;11.70;;;;;8.20;102983.00;;;;5044222;28;20231;-74
2023/12/17 12:14:18;;;;;;;25.30;11.03;;;;;8.30;102963.00;;;;5040981;28;20226;-73
2023/12/17 12:17:05;;;;;;;23.87;12.27;;;;;8.20;102972.00;;;;5044656;28;20848;-73
2023/12/17 12:19:51;;;;;;;21.10;10.30;;;;;8.10;102979.00;;;;5039971;28;20299;-73
2023/12/17 12:22:39;;;;;;;25.77;11.37;;;;;8.10;102971.00;;;;5045846;28;20243;-75
2023/12/17 12:25:27;;;;;;;22.27;10.83;;;;;8.00;102974.00;;;;5040336;28;20243;-74
2023/12/17 12:28:17;;;;;;;24.63;10.80;;;;;7.90;102973.00;;;;5037654;28;20227;-72
2023/12/17 12:31:11;;;;;;;23.40;12.37;;;;;7.90;102966.00;;;;5040880;28;20603;-73
2023/12/17 12:33:59;;;;;;;26.90;12.40;;;;;8.00;102975.00;;;;5041083;28;20256;-73
2023/12/17 12:36:48;;;;;;;26.97;12.30;;;;;8.10;102967.00;;;;5042355;28;20239;-74
2023/12/17 12:39:46;;;;;;;42.70;17.27;;;;;8.20;102968.00;;;;5043668;28;20250;-74
2023/12/17 12:43:01;;;;;;;36.00;13.50;;;;;8.10;102964.00;;;;5042473;28;20230;-74
2023/12/17 12:45:48;;;;;;;28.20;12.33;;;;;8.10;102953.00;;;;5041289;28;20255;-73
2023/12/17 12:48:36;;;;;;;33.00;12.50;;;;;8.00;102951.00;;;;5039094;28;20563;-75
2023/12/17 12:51:25;;;;;;;26.67;12.43;;;;;8.10;102957.00;;;;5041179;28;20736;-75
2023/12/17 12:54:11;;;;;;;27.53;13.30;;;;;8.00;102950.00;;;;5038957;28;20237;-74
2023/12/17 12:56:58;;;;;;;27.57;12.20;;;;;8.00;102948.00;;;;5043274;28;20610;-76
2023/12/17 12:59:45;;;;;;;26.93;13.17;;;;;8.20;102949.00;;;;5036526;28;20248;-76
2023/12/17 13:02:32;;;;;;;27.40;12.87;;;;;8.20;102944.00;;;;5038154;28;20242;-76
2023/12/17 13:05:22;;;;;;;28.60;12.77;;;;;8.10;102942.00;;;;5035643;28;20249;-73
2023/12/17 13:08:09;;;;;;;30.60;13.10;;;;;8.10;102944.00;;;;5051502;28;20238;-75
2023/12/17 13:10:56;;;;;;;29.67;13.30;;;;;8.20;102938.00;;;;5037113;28;20377;-76
2023/12/17 13:13:42;;;;;;;30.87;13.43;;;;;8.20;102942.00;;;;5041473;28;20248;-75
2023/12/17 13:16:30;;;;;;;29.30;13.03;;;;;8.10;102928.00;;;;5042921;28;20729;-75
2023/12/17 13:19:16;;;;;;;27.00;12.83;;;;;8.10;102920.00;;;;5033111;28;20239;-72
2023/12/17 13:22:05;;;;;;;24.73;11.77;;;;;8.10;102923.00;;;;5039018;28;20798;-76
2023/12/17 13:24:51;;;;;;;28.47;13.57;;;;;8.10;102916.00;;;;5039576;28;20220;-75
2023/12/17 13:27:37;;;;;;;31.40;13.30;;;;;8.20;102911.00;;;;5039478;28;20618;-74
2023/12/17 13:30:25;;;;;;;27.60;12.17;;;;;8.30;102913.00;;;;5037719;28;20261;-76
2023/12/17 13:33:13;;;;;;;29.57;12.80;;;;;8.20;102899.00;;;;5042698;28;20232;-75
2023/12/17 13:35:59;;;;;;;25.83;12.13;;;;;8.20;102907.00;;;;5040537;28;20259;-76
2023/12/17 13:38:46;;;;;;;27.33;12.87;;;;;8.30;102890.00;;;;5039953;28;20744;-77